Sea Chase — WDG4428 — position and weather

sailwx.info

Track history (hours):
 
Tides and Currents Weather Stations Pressure Air Temp Water Temp Dewpoint Dewpoint Depression Visibility Wind Speed Wind Dir Waves Ship Positions

Sea Chase

Owner: Cardani, William R, Rockport, MA. More information available from US FCC via Universal Licensing System and Coast Guard Vessel Documentation Center.

Last reported at 2018-Jun-19 21:34 UTC. Time now 2018-Jun-22 03:44 UTC.
Position N 42°40' W 070°37'.

Type: Pleasure craft. MMSI: 338026000.

Date/timePositionNaut miles runAvg speedWind from/ knotsBaromVisibWave heightAir tempDewpointWater temp
2018-Jun-19 21:34N 42°40' W 070°37'0 0.0
2018-Jun-19 21:28N 42°40' W 070°37'0 0.0
2018-Jun-18 21:12N 42°40' W 070°37'0 0.0
2018-Jun-18 20:59N 42°40' W 070°37'0 0.0
2018-Jun-17 21:08N 42°40' W 070°37'0 2.2
2018-Jun-17 21:00N 42°40' W 070°36'3 7.1
2018-Jun-17 20:30N 42°40' W 070°32'2 4.2
2018-Jun-17 20:00N 42°41' W 070°29'0 0.5
2018-Jun-17 19:30N 42°41' W 070°29'2 4.3
2018-Jun-17 19:00N 42°40' W 070°32'2 4.4
2018-Jun-17 18:30N 42°40' W 070°35'  
2018-Jun-10 20:40N 42°40' W 070°37'0 0.0
2018-Jun-10 20:25N 42°40' W 070°37'0 0.0
2018-Jun-10 19:58N 42°40' W 070°37'  
Track history (hours):
 
Tides and Currents Weather Stations Pressure Air Temp Water Temp Dewpoint Dewpoint Depression Visibility Wind Speed Wind Dir Waves Ship Positions

Sea Chase

Owner: Cardani, William R, Rockport, MA. More information available from US FCC via Universal Licensing System and Coast Guard Vessel Documentation Center.

Last reported at 2018-Jun-19 21:34 UTC. Time now 2018-Jun-22 03:44 UTC.
Position N 42°40' W 070°37'.

Type: Pleasure craft. MMSI: 338026000.

Date/timePositionNaut miles runAvg speedWind from/ knotsBaromVisibWave heightAir tempDewpointWater temp
2018-Jun-19 21:34N 42°40' W 070°37'0 0.0
2018-Jun-19 21:28N 42°40' W 070°37'0 0.0
2018-Jun-18 21:12N 42°40' W 070°37'0 0.0
2018-Jun-18 20:59N 42°40' W 070°37'0 0.0
2018-Jun-17 21:08N 42°40' W 070°37'0 2.2
2018-Jun-17 21:00N 42°40' W 070°36'3 7.1
2018-Jun-17 20:30N 42°40' W 070°32'2 4.2
2018-Jun-17 20:00N 42°41' W 070°29'0 0.5
2018-Jun-17 19:30N 42°41' W 070°29'2 4.3
2018-Jun-17 19:00N 42°40' W 070°32'2 4.4
2018-Jun-17 18:30N 42°40' W 070°35'  
2018-Jun-10 20:40N 42°40' W 070°37'0 0.0
2018-Jun-10 20:25N 42°40' W 070°37'0 0.0
2018-Jun-10 19:58N 42°40' W 070°37'  

Dump ship's entire track history